Time;durP1;ratioP1;P1;durP2;ratioP2;P2;SDS_P1;SDS_P2;PMS_P1;PMS_P2;Temp;Humidity;BMP_temperature;BMP_pressure;BME280_temperature;BME280_humidity;BME280_pressure;Samples;Min_cycle;Max_cycle;Signal;HPM_P1;HPM_P2
2023/11/30 00:01:40;;;;;;;65.32;26.52;;;;;;;;;;6133126;23;20020;-95
2023/11/30 00:04:28;;;;;;;82.10;31.13;;;;;;;;;;6104557;23;20053;-94
2023/11/30 00:06:57;;;;;;;78.05;30.42;;;;;;;;;;6234131;23;20499;-92
2023/11/30 00:09:26;;;;;;;106.28;38.88;;;;;;;;;;6222000;23;20027;-95
2023/11/30 00:11:58;;;;;;;125.25;43.47;;;;;;;;;;6222320;23;20008;-94
2023/11/30 00:14:24;;;;;;;121.82;41.65;;;;;;;;;;6221494;23;20023;-94
2023/11/30 00:16:50;;;;;;;124.50;43.00;;;;;;;;;;6221364;23;20004;-94
2023/11/30 00:19:19;;;;;;;127.80;44.30;;;;;;;;;;6220741;23;20004;-95
2023/11/30 00:21:45;;;;;;;128.00;43.22;;;;;;;;;;6225016;23;20505;-95
2023/11/30 00:24:14;;;;;;;142.45;44.88;;;;;;;;;;6225863;23;20004;-94
2023/11/30 00:26:42;;;;;;;130.30;42.70;;;;;;;;;;6220485;23;20053;-94
2023/11/30 00:29:11;;;;;;;114.22;42.08;;;;;;;;;;6221114;23;20378;-93
2023/11/30 00:31:48;;;;;;;131.45;46.47;;;;;;;;;;6241969;23;20047;-94
2023/11/30 00:34:17;;;;;;;138.63;46.33;;;;;;;;;;6222822;23;20016;-95
2023/11/30 00:36:44;;;;;;;145.10;48.22;;;;;;;;;;6233718;22;20123;-94
2023/11/30 00:39:23;;;;;;;;;;;;;;;;;;;;;
2023/11/30 00:41:52;;;;;;;154.00;50.60;;;;;;;;;;6278898;22;20512;-96
2023/11/30 00:44:21;;;;;;;151.43;48.97;;;;;;;;;;6277562;22;20007;-95
2023/11/30 00:46:47;;;;;;;146.68;48.75;;;;;;;;;;6276466;22;20496;-94
2023/11/30 00:49:21;;;;;;;155.48;48.67;;;;;;;;;;6247181;22;20004;-95
2023/11/30 00:51:53;;;;;;;146.93;48.53;;;;;;;;;;6221631;23;20063;-94
2023/11/30 00:54:22;;;;;;;146.13;48.90;;;;;;;;;;6220163;23;20020;-93
2023/11/30 00:56:48;;;;;;;135.38;47.40;;;;;;;;;;6220486;23;20000;-94
2023/11/30 00:59:14;;;;;;;145.10;48.03;;;;;;;;;;6220531;23;20008;-93
2023/11/30 01:01:41;;;;;;;130.85;44.00;;;;;;;;;;6226474;23;20358;-94
2023/11/30 01:04:07;;;;;;;127.65;44.20;;;;;;;;;;6221329;23;20008;-95
2023/11/30 01:06:36;;;;;;;122.68;43.25;;;;;;;;;;6216039;23;20071;-94
2023/11/30 01:09:05;;;;;;;135.98;45.08;;;;;;;;;;6220359;23;20008;-95
2023/11/30 01:12:02;;;;;;;113.85;42.40;;;;;;;;;;6220396;23;20008;-95
2023/11/30 01:14:31;;;;;;;116.00;39.60;;;;;;;;;;6220888;23;20012;-93
2023/11/30 01:17:03;;;;;;;126.97;42.30;;;;;;;;;;6220201;23;20000;-95
2023/11/30 01:19:56;;;;;;;105.93;38.33;;;;;;;;;;6227806;22;20007;-95
2023/11/30 01:25:38;;;;;;;93.25;33.13;;;;;;;;;;6296310;22;20014;-94
2023/11/30 01:28:07;;;;;;;81.68;31.48;;;;;;;;;;6271002;22;20007;-95
2023/11/30 01:30:33;;;;;;;79.03;29.02;;;;;;;;;;6278507;22;20011;-94
2023/11/30 01:32:59;;;;;;;83.97;29.15;;;;;;;;;;6277266;22;20007;-95
2023/11/30 01:35:29;;;;;;;82.22;30.73;;;;;;;;;;6277757;22;20038;-94
2023/11/30 01:37:58;;;;;;;89.93;32.22;;;;;;;;;;6282561;22;20014;-95
2023/11/30 01:40:27;;;;;;;79.00;29.85;;;;;;;;;;6282421;22;20014;-93
2023/11/30 01:43:06;;;;;;;79.30;29.05;;;;;;;;;;6282606;22;19999;-93
2023/11/30 01:45:38;;;;;;;77.22;30.20;;;;;;;;;;6282480;22;19999;-95
2023/11/30 01:48:16;;;;;;;85.00;31.08;;;;;;;;;;6281819;22;20003;-94
2023/11/30 01:50:49;;;;;;;82.45;30.17;;;;;;;;;;6282637;22;20023;-94
2023/11/30 01:53:16;;;;;;;77.95;28.52;;;;;;;;;;6284418;22;20003;-94
2023/11/30 01:55:42;;;;;;;68.72;25.70;;;;;;;;;;6297142;22;20340;-93
2023/11/30 01:58:14;;;;;;;63.55;24.98;;;;;;;;;;6287239;22;20058;-94
2023/11/30 02:00:44;;;;;;;69.17;26.20;;;;;;;;;;6281918;22;20082;-96
2023/11/30 02:03:11;;;;;;;69.15;26.15;;;;;;;;;;6281816;22;20049;-94
2023/11/30 02:05:41;;;;;;;65.72;24.80;;;;;;;;;;6281963;22;20424;-95
2023/11/30 02:08:22;;;;;;;68.30;25.40;;;;;;;;;;6282192;22;20046;-94
2023/11/30 02:10:48;;;;;;;68.30;26.52;;;;;;;;;;6282455;22;20030;-94
2023/11/30 02:13:20;;;;;;;65.63;26.30;;;;;;;;;;6280472;22;19999;-94
2023/11/30 02:15:46;;;;;;;74.50;26.58;;;;;;;;;;6286747;22;20011;-95
2023/11/30 02:18:18;;;;;;;75.78;28.08;;;;;;;;;;6298399;22;20025;-95
2023/11/30 02:20:45;;;;;;;75.90;27.35;;;;;;;;;;6302650;22;20015;-94
2023/11/30 02:23:13;;;;;;;78.65;30.10;;;;;;;;;;6297836;22;20007;-95
2023/11/30 02:25:46;;;;;;;68.35;26.13;;;;;;;;;;6287566;22;20008;-96
2023/11/30 02:28:25;;;;;;;64.55;25.83;;;;;;;;;;6283004;22;20003;-95
2023/11/30 02:30:52;;;;;;;71.65;26.52;;;;;;;;;;6310391;22;20060;-94
2023/11/30 02:33:18;;;;;;;68.32;25.40;;;;;;;;;;6273453;22;20007;-94
2023/11/30 02:35:50;;;;;;;63.03;23.67;;;;;;;;;;6282470;22;20054;-95
2023/11/30 02:38:16;;;;;;;59.05;23.20;;;;;;;;;;6281505;22;20372;-94
2023/11/30 02:40:45;;;;;;;53.28;21.73;;;;;;;;;;6282041;22;20310;-93
2023/11/30 02:43:18;;;;;;;57.03;22.23;;;;;;;;;;6281603;22;20004;-93
2023/11/30 02:45:50;;;;;;;47.85;19.23;;;;;;;;;;6282272;22;20007;-95
2023/11/30 02:48:19;;;;;;;41.88;18.70;;;;;;;;;;6282456;22;19999;-93
2023/11/30 02:50:51;;;;;;;49.65;19.83;;;;;;;;;;6285098;22;20129;-95
2023/11/30 02:53:21;;;;;;;45.83;19.63;;;;;;;;;;6282143;22;20003;-95
2023/11/30 02:55:50;;;;;;;38.63;17.42;;;;;;;;;;6281756;22;20025;-94
2023/11/30 02:58:22;;;;;;;43.13;17.35;;;;;;;;;;6282290;22;20023;-95
2023/11/30 03:00:54;;;;;;;43.65;18.10;;;;;;;;;;6279756;22;20082;-94
2023/11/30 03:03:23;;;;;;;42.47;17.60;;;;;;;;;;6281260;22;20007;-93
2023/11/30 03:05:50;;;;;;;40.55;17.50;;;;;;;;;;6282214;22;20013;-94
2023/11/30 03:08:19;;;;;;;34.03;16.65;;;;;;;;;;6282403;22;20003;-94
2023/11/30 03:10:48;;;;;;;41.45;18.10;;;;;;;;;;6281317;22;20109;-94
2023/11/30 03:13:14;;;;;;;40.13;17.52;;;;;;;;;;6281532;22;20003;-94
2023/11/30 03:15:50;;;;;;;41.97;18.23;;;;;;;;;;6298775;22;20082;-94
2023/11/30 03:18:19;;;;;;;42.20;19.02;;;;;;;;;;6293774;22;20003;-94
2023/11/30 03:21:00;;;;;;;36.70;16.77;;;;;;;;;;6285265;22;20004;-96
2023/11/30 03:23:26;;;;;;;36.50;17.30;;;;;;;;;;6283392;22;20004;-95
2023/11/30 03:25:52;;;;;;;36.90;16.08;;;;;;;;;;6282463;22;20003;-95
2023/11/30 03:28:46;;;;;;;41.40;19.02;;;;;;;;;;6282579;22;20027;-94
2023/11/30 03:31:19;;;;;;;42.72;17.98;;;;;;;;;;6282291;22;20412;-94
2023/11/30 03:33:49;;;;;;;39.38;18.08;;;;;;;;;;6281639;22;20085;-94
2023/11/30 03:36:15;;;;;;;42.75;18.67;;;;;;;;;;6276231;22;20020;-94
2023/11/30 03:38:41;;;;;;;36.35;16.13;;;;;;;;;;6276735;22;20014;-94
2023/11/30 03:41:10;;;;;;;39.08;16.95;;;;;;;;;;6277725;22;19999;-93
2023/11/30 03:43:48;;;;;;;38.53;16.95;;;;;;;;;;6280961;22;20341;-95
2023/11/30 03:46:26;;;;;;;41.83;17.58;;;;;;;;;;6279832;22;19999;-93
2023/11/30 03:48:56;;;;;;;45.92;17.75;;;;;;;;;;6282424;22;20004;-95
2023/11/30 03:51:28;;;;;;;33.05;15.20;;;;;;;;;;6277943;22;20498;-95
2023/11/30 03:53:58;;;;;;;36.30;16.77;;;;;;;;;;6277274;22;20012;-94
2023/11/30 03:56:34;;;;;;;34.92;15.80;;;;;;;;;;6279469;22;20007;-94
2023/11/30 03:59:10;;;;;;;34.58;15.90;;;;;;;;;;6278283;22;20031;-95
2023/11/30 04:01:42;;;;;;;37.85;16.63;;;;;;;;;;6279013;22;20008;-94
2023/11/30 04:04:20;;;;;;;37.00;16.55;;;;;;;;;;6278470;22;20004;-96
2023/11/30 04:06:46;;;;;;;39.40;17.23;;;;;;;;;;6279377;22;20004;-95
2023/11/30 04:09:18;;;;;;;42.92;16.90;;;;;;;;;;6280103;22;20014;-92
2023/11/30 04:11:51;;;;;;;40.83;17.23;;;;;;;;;;6299026;22;20004;-94
2023/11/30 04:14:17;;;;;;;40.05;18.45;;;;;;;;;;6282240;22;20016;-96
2023/11/30 04:16:43;;;;;;;38.00;16.33;;;;;;;;;;6279606;22;20324;-96
2023/11/30 04:19:10;;;;;;;41.90;16.40;;;;;;;;;;6278737;22;20192;-95
2023/11/30 04:21:40;;;;;;;39.83;16.98;;;;;;;;;;6278682;22;20038;-94
2023/11/30 04:24:13;;;;;;;43.15;17.35;;;;;;;;;;6277594;22;20015;-94
2023/11/30 04:26:45;;;;;;;39.85;16.75;;;;;;;;;;6277367;22;20010;-95
2023/11/30 04:29:14;;;;;;;44.22;18.55;;;;;;;;;;6277792;22;20501;-94
2023/11/30 04:31:47;;;;;;;43.80;17.27;;;;;;;;;;6278415;22;20003;-95
2023/11/30 04:34:13;;;;;;;35.85;15.27;;;;;;;;;;6278731;22;20077;-95
2023/11/30 04:36:45;;;;;;;33.17;15.32;;;;;;;;;;6280173;22;20341;-95
2023/11/30 04:39:22;;;;;;;31.55;14.75;;;;;;;;;;6277963;22;20085;-94
2023/11/30 04:41:54;;;;;;;32.78;14.77;;;;;;;;;;6278769;22;20000;-94
2023/11/30 04:44:25;;;;;;;33.45;15.23;;;;;;;;;;6277956;22;20007;-95
2023/11/30 04:46:51;;;;;;;36.85;15.88;;;;;;;;;;6278409;22;20008;-94
2023/11/30 04:52:10;;;;;;;32.92;14.13;;;;;;;;;;6268739;22;20010;-95
2023/11/30 04:54:36;;;;;;;32.08;14.98;;;;;;;;;;6276950;22;20022;-95
2023/11/30 04:57:14;;;;;;;27.13;12.80;;;;;;;;;;6281445;22;20011;-95
2023/11/30 04:59:40;;;;;;;28.88;13.45;;;;;;;;;;6278001;22;20072;-94
2023/11/30 05:02:07;;;;;;;27.73;13.32;;;;;;;;;;6278479;22;20082;-95
2023/11/30 05:04:33;;;;;;;29.38;13.77;;;;;;;;;;6281234;22;20004;-95
2023/11/30 05:07:06;;;;;;;27.15;13.25;;;;;;;;;;6294071;22;20035;-94
2023/11/30 05:09:38;;;;;;;26.33;12.45;;;;;;;;;;6282184;22;20011;-94
2023/11/30 05:12:16;;;;;;;30.23;14.77;;;;;;;;;;6279975;22;20078;-94
2023/11/30 05:14:45;;;;;;;29.77;14.20;;;;;;;;;;6278248;22;20012;-94
2023/11/30 05:17:15;;;;;;;33.08;14.63;;;;;;;;;;6277119;22;20413;-95
2023/11/30 05:19:47;;;;;;;33.97;14.25;;;;;;;;;;6277562;22;20007;-96
2023/11/30 05:22:16;;;;;;;31.27;13.98;;;;;;;;;;6277349;22;20075;-95
2023/11/30 05:30:24;;;;;;;28.60;12.98;;;;;;;;;;6287508;22;20094;-95
2023/11/30 05:32:50;;;;;;;29.00;13.38;;;;;;;;;;6280507;22;20087;-95
2023/11/30 05:38:20;;;;;;;31.98;15.02;;;;;;;;;;6326132;22;20094;-94
2023/11/30 05:43:25;;;;;;;33.45;14.18;;;;;;;;;;6326489;22;20022;-95
2023/11/30 05:45:54;;;;;;;33.00;15.30;;;;;;;;;;6316554;22;20002;-94
2023/11/30 05:48:21;;;;;;;34.15;15.00;;;;;;;;;;6312213;22;20010;-95
2023/11/30 05:50:48;;;;;;;38.05;16.15;;;;;;;;;;6296870;22;19999;-95
2023/11/30 05:53:14;;;;;;;42.20;15.68;;;;;;;;;;6314915;22;20007;-95
2023/11/30 05:55:59;;;;;;;31.92;14.77;;;;;;;;;;6313942;22;20020;-93
2023/11/30 05:58:25;;;;;;;34.63;14.55;;;;;;;;;;6315586;22;19999;-93
2023/11/30 06:03:36;;;;;;;40.33;16.40;;;;;;;;;;6299748;22;20038;-95
2023/11/30 06:06:21;;;;;;;33.83;15.18;;;;;;;;;;6316702;22;20002;-96
2023/11/30 06:09:17;;;;;;;37.20;16.17;;;;;;;;;;6316849;22;20054;-96
2023/11/30 06:12:24;;;;;;;33.25;13.75;;;;;;;;;;6227704;22;19999;-94
2023/11/30 06:14:54;;;;;;;37.80;14.80;;;;;;;;;;6190872;23;20021;-96
2023/11/30 06:20:59;;;;;;;36.28;15.75;;;;;;;;;;6215370;23;20015;-96
2023/11/30 06:23:34;;;;;;;33.28;14.20;;;;;;;;;;6192546;23;20001;-96
2023/11/30 06:32:56;;;;;;;27.50;11.60;;;;;;;;;;6343309;22;20060;-95
2023/11/30 06:35:48;;;;;;;27.88;12.20;;;;;;;;;;6314442;22;20040;-94
2023/11/30 06:38:33;;;;;;;26.52;12.82;;;;;;;;;;6314073;22;20052;-96
2023/11/30 06:47:09;;;;;;;29.85;13.10;;;;;;;;;;6185421;23;20028;-95
2023/11/30 06:49:50;;;;;;;26.88;12.90;;;;;;;;;;6313858;22;20106;-96
2023/11/30 06:52:19;;;;;;;25.48;12.70;;;;;;;;;;6313783;22;20367;-96
2023/11/30 06:54:49;;;;;;;31.10;12.55;;;;;;;;;;6296446;22;20023;-95
2023/11/30 06:57:21;;;;;;;29.63;13.50;;;;;;;;;;6330853;22;20003;-95
2023/11/30 06:59:59;;;;;;;24.25;12.20;;;;;;;;;;6310328;22;20003;-95
2023/11/30 07:02:31;;;;;;;22.02;11.27;;;;;;;;;;6312622;22;20037;-95
2023/11/30 07:05:29;;;;;;;26.98;11.50;;;;;;;;;;6312964;22;20003;-95
2023/11/30 07:07:55;;;;;;;25.48;11.95;;;;;;;;;;6313253;22;20003;-95
2023/11/30 07:10:21;;;;;;;26.65;13.07;;;;;;;;;;6312759;22;20501;-95
2023/11/30 07:12:53;;;;;;;26.60;12.18;;;;;;;;;;6312731;22;20009;-93
2023/11/30 07:15:30;;;;;;;;;;;;;;;;;;;;;
2023/11/30 07:17:59;;;;;;;24.42;11.68;;;;;;;;;;6343127;22;20357;-94
2023/11/30 07:20:28;;;;;;;21.90;11.35;;;;;;;;;;6318141;22;20060;-93
2023/11/30 07:25:43;;;;;;;26.38;12.95;;;;;;;;;;6339890;22;20045;-94
2023/11/30 07:31:08;;;;;;;25.20;13.45;;;;;;;;;;6342024;22;20071;-96
2023/11/30 07:33:46;;;;;;;36.70;18.58;;;;;;;;;;6320918;22;20031;-94
2023/11/30 07:36:15;;;;;;;30.27;14.30;;;;;;;;;;6324211;22;20011;-92
2023/11/30 07:38:45;;;;;;;30.85;14.65;;;;;;;;;;6315434;22;20352;-95
2023/11/30 07:41:12;;;;;;;37.33;15.98;;;;;;;;;;6317612;22;20013;-94
2023/11/30 07:43:47;;;;;;;29.05;14.20;;;;;;;;;;6318088;22;20005;-95
2023/11/30 07:46:16;;;;;;;35.05;17.08;;;;;;;;;;6316880;22;20013;-96
2023/11/30 07:48:43;;;;;;;46.67;21.40;;;;;;;;;;6315752;22;20077;-94
2023/11/30 07:51:23;;;;;;;36.97;17.90;;;;;;;;;;6334055;22;19990;-94
2023/11/30 07:53:52;;;;;;;37.03;16.95;;;;;;;;;;6327326;22;20010;-95
2023/11/30 08:05:54;;;;;;;26.38;13.82;;;;;;;;;;6217473;23;20055;-95
2023/11/30 08:08:27;;;;;;;30.50;14.75;;;;;;;;;;6191601;23;20004;-94
2023/11/30 08:13:59;;;;;;;86.32;33.15;;;;;;;;;;6343421;22;20018;-94
2023/11/30 08:16:35;;;;;;;70.18;29.50;;;;;;;;;;6315200;22;20006;-95
2023/11/30 08:19:05;;;;;;;65.30;25.85;;;;;;;;;;6290815;22;20436;-94
2023/11/30 08:21:39;;;;;;;72.93;29.63;;;;;;;;;;6316867;22;20007;-95
2023/11/30 09:10:11;;;;;;;22.65;11.00;;;;;;;;;;6337423;22;20022;-94
2023/11/30 09:18:57;;;;;;;23.98;11.77;;;;;;;;;;6243785;22;20009;-94
2023/11/30 09:21:23;;;;;;;23.98;12.38;;;;;;;;;;6313907;22;20089;-93
2023/11/30 09:23:50;;;;;;;23.90;12.52;;;;;;;;;;6313201;22;20095;-94
2023/11/30 09:26:20;;;;;;;25.27;11.90;;;;;;;;;;6313544;22;19999;-93
2023/11/30 09:28:58;;;;;;;;;;;;;;;;;;;;;
2023/11/30 09:31:31;;;;;;;23.38;11.10;;;;;;;;;;6332522;22;20026;-94
2023/11/30 09:34:01;;;;;;;22.75;11.98;;;;;;;;;;6322372;22;20015;-94
2023/11/30 09:36:36;;;;;;;23.48;12.43;;;;;;;;;;6315188;22;20024;-94
2023/11/30 09:39:35;;;;;;;26.45;12.05;;;;;;;;;;6313553;22;20455;-94
2023/11/30 09:42:03;;;;;;;25.20;11.63;;;;;;;;;;6312671;22;20443;-92
2023/11/30 09:44:52;;;;;;;23.83;11.98;;;;;;;;;;6334805;22;19991;-92
2023/11/30 09:47:21;;;;;;;25.70;12.55;;;;;;;;;;6317291;22;20420;-95
2023/11/30 09:49:50;;;;;;;22.95;11.73;;;;;;;;;;6313517;22;20010;-95
2023/11/30 09:52:19;;;;;;;22.17;11.30;;;;;;;;;;6306196;22;20444;-96
2023/11/30 09:55:05;;;;;;;;;;;;;;;;;;;;;
2023/11/30 09:57:38;;;;;;;23.33;12.23;;;;;;;;;;6306634;22;20503;-94
2023/11/30 10:00:10;;;;;;;22.15;11.20;;;;;;;;;;6281236;22;20011;-94
2023/11/30 10:02:53;;;;;;;22.92;11.23;;;;;;;;;;6281103;22;20003;-94
2023/11/30 10:05:23;;;;;;;20.63;11.20;;;;;;;;;;6281917;22;20007;-93
2023/11/30 10:10:48;;;;;;;24.58;12.68;;;;;;;;;;6213905;23;20025;-90
2023/11/30 10:13:25;;;;;;;21.20;12.30;;;;;;;;;;6269388;22;20068;-95
2023/11/30 10:15:55;;;;;;;22.25;11.80;;;;;;;;;;6281367;22;20011;-95
2023/11/30 10:18:32;;;;;;;23.67;12.00;;;;;;;;;;6280242;22;20007;-93
2023/11/30 10:21:01;;;;;;;18.98;10.60;;;;;;;;;;6277968;22;20003;-96
2023/11/30 10:23:30;;;;;;;21.27;12.10;;;;;;;;;;6295061;22;19999;-95
2023/11/30 10:26:15;;;;;;;21.70;11.85;;;;;;;;;;6310842;22;20011;-93
2023/11/30 10:28:54;;;;;;;23.48;12.20;;;;;;;;;;6313571;22;20007;-96
2023/11/30 10:32:02;;;;;;;;;;;;;;;;;;;;;
2023/11/30 10:34:35;;;;;;;22.52;11.02;;;;;;;;;;6215483;23;20518;-95
2023/11/30 10:37:05;;;;;;;24.85;12.05;;;;;;;;;;6189949;23;20040;-96
2023/11/30 10:39:43;;;;;;;20.40;11.63;;;;;;;;;;6207413;22;20262;-93
2023/11/30 10:45:24;;;;;;;25.80;11.35;;;;;;;;;;6280312;22;20018;-95
2023/11/30 10:47:50;;;;;;;24.05;12.50;;;;;;;;;;6308029;22;19999;-95
2023/11/30 10:50:35;;;;;;;25.75;12.80;;;;;;;;;;6309442;22;20003;-95
2023/11/30 10:53:01;;;;;;;25.73;12.90;;;;;;;;;;6309782;22;20018;-95
2023/11/30 10:58:36;;;;;;;25.27;13.10;;;;;;;;;;6313105;22;20513;-93
2023/11/30 11:01:15;;;;;;;25.58;13.25;;;;;;;;;;6318344;22;20003;-94
2023/11/30 11:06:36;;;;;;;25.90;12.90;;;;;;;;;;6314407;22;20060;-96
2023/11/30 11:09:27;;;;;;;23.10;12.10;;;;;;;;;;6311783;22;20007;-95
2023/11/30 11:18:07;;;;;;;25.25;12.55;;;;;;;;;;6309778;22;20014;-95
2023/11/30 11:20:36;;;;;;;26.73;13.00;;;;;;;;;;6246858;23;20012;-95
2023/11/30 11:23:06;;;;;;;24.67;13.18;;;;;;;;;;6223703;23;20100;-95
2023/11/30 11:25:38;;;;;;;24.33;12.65;;;;;;;;;;6225538;23;20020;-96
2023/11/30 11:28:04;;;;;;;27.25;13.68;;;;;;;;;;6223651;23;20009;-95
2023/11/30 11:33:44;;;;;;;25.42;13.32;;;;;;;;;;6247354;23;20115;-95
2023/11/30 11:36:14;;;;;;;24.35;13.63;;;;;;;;;;6237698;23;20008;-93
2023/11/30 11:38:42;;;;;;;24.92;12.77;;;;;;;;;;6230275;23;20004;-93
2023/11/30 11:41:09;;;;;;;27.38;14.70;;;;;;;;;;6222830;23;20016;-95
2023/11/30 11:43:55;;;;;;;25.92;14.25;;;;;;;;;;6246582;22;20323;-94
2023/11/30 11:46:24;;;;;;;31.77;14.70;;;;;;;;;;6252875;22;20027;-94
2023/11/30 11:51:49;;;;;;;29.50;15.32;;;;;;;;;;6280346;22;20007;-93
2023/11/30 11:57:33;;;;;;;29.50;14.90;;;;;;;;;;6312314;22;20010;-93
2023/11/30 12:00:03;;;;;;;27.83;14.35;;;;;;;;;;6310203;22;20059;-93
2023/11/30 12:02:34;;;;;;;29.83;15.68;;;;;;;;;;6311631;22;20103;-94
2023/11/30 12:05:21;;;;;;;31.02;15.98;;;;;;;;;;6310820;22;20003;-94
2023/11/30 12:07:56;;;;;;;30.92;15.07;;;;;;;;;;6309170;22;19999;-93
2023/11/30 12:10:41;;;;;;;32.30;16.00;;;;;;;;;;6309983;22;20007;-95
2023/11/30 12:13:12;;;;;;;29.98;15.60;;;;;;;;;;6310109;22;20010;-91
2023/11/30 12:15:45;;;;;;;31.63;16.15;;;;;;;;;;6312257;22;20015;-93
2023/11/30 12:18:14;;;;;;;31.42;16.27;;;;;;;;;;6322240;22;20003;-92
2023/11/30 12:20:40;;;;;;;33.75;16.48;;;;;;;;;;6320365;22;20030;-96
2023/11/30 12:23:15;;;;;;;30.77;16.08;;;;;;;;;;6313922;22;20003;-94
2023/11/30 12:28:54;;;;;;;31.13;16.42;;;;;;;;;;6299663;22;20015;-93
2023/11/30 12:31:21;;;;;;;35.55;17.38;;;;;;;;;;6303907;22;20030;-94
2023/11/30 12:33:52;;;;;;;36.55;18.55;;;;;;;;;;6324509;22;20014;-93
2023/11/30 12:36:22;;;;;;;35.13;16.95;;;;;;;;;;6314349;22;20043;-95
2023/11/30 12:38:55;;;;;;;34.95;17.60;;;;;;;;;;6311713;22;20011;-95
2023/11/30 12:41:33;;;;;;;33.85;16.23;;;;;;;;;;6326653;22;20014;-93
2023/11/30 12:44:09;;;;;;;32.60;16.17;;;;;;;;;;6316281;22;20443;-94
2023/11/30 12:46:35;;;;;;;35.97;17.58;;;;;;;;;;6315727;22;20025;-95
2023/11/30 12:49:10;;;;;;;36.70;17.38;;;;;;;;;;6315976;22;20052;-95
2023/11/30 12:52:02;;;;;;;36.60;17.95;;;;;;;;;;6314881;22;20003;-93
2023/11/30 12:54:35;;;;;;;40.08;19.17;;;;;;;;;;6300709;22;20010;-95
2023/11/30 12:57:04;;;;;;;35.87;17.67;;;;;;;;;;6289994;22;20014;-96
2023/11/30 12:59:36;;;;;;;42.20;19.27;;;;;;;;;;6308736;22;20458;-93
2023/11/30 13:02:09;;;;;;;39.38;19.88;;;;;;;;;;6280163;22;20433;-95
2023/11/30 13:04:39;;;;;;;37.90;18.23;;;;;;;;;;6258120;22;20015;-95
2023/11/30 13:07:14;;;;;;;37.67;19.08;;;;;;;;;;6282718;22;20008;-92
2023/11/30 13:09:46;;;;;;;38.72;18.58;;;;;;;;;;6282511;22;20456;-95
2023/11/30 13:12:15;;;;;;;40.75;20.40;;;;;;;;;;6282582;22;20008;-95
2023/11/30 13:14:59;;;;;;;42.28;20.25;;;;;;;;;;6307547;22;20015;-95
2023/11/30 13:17:33;;;;;;;47.50;21.65;;;;;;;;;;6309984;22;20449;-92
2023/11/30 13:20:21;;;;;;;40.33;19.70;;;;;;;;;;6286787;22;20405;-94
2023/11/30 13:22:47;;;;;;;43.58;20.75;;;;;;;;;;6284155;22;20055;-94
2023/11/30 13:25:20;;;;;;;40.45;19.95;;;;;;;;;;6284839;22;20003;-95
2023/11/30 13:27:53;;;;;;;44.80;20.10;;;;;;;;;;6305347;22;19984;-94
2023/11/30 13:30:22;;;;;;;40.20;20.13;;;;;;;;;;6276468;22;20007;-94
2023/11/30 13:35:54;;;;;;;43.60;20.42;;;;;;;;;;6320980;22;20014;-95
2023/11/30 13:38:21;;;;;;;44.47;20.50;;;;;;;;;;6317033;22;20518;-94
2023/11/30 13:41:07;;;;;;;38.95;19.98;;;;;;;;;;6341944;22;20036;-96
2023/11/30 13:46:27;;;;;;;42.72;21.13;;;;;;;;;;6239431;22;20020;-93
2023/11/30 13:49:06;;;;;;;48.03;22.60;;;;;;;;;;6297537;22;20015;-94
2023/11/30 13:51:41;;;;;;;41.00;19.48;;;;;;;;;;6285240;22;20099;-94
2023/11/30 13:54:29;;;;;;;42.80;20.17;;;;;;;;;;6249475;22;20023;-95
2023/11/30 14:05:26;;;;;;;39.28;18.73;;;;;;;;;;6311345;22;20047;-95
2023/11/30 14:07:52;;;;;;;41.67;20.73;;;;;;;;;;6285004;22;20011;-95
2023/11/30 14:10:22;;;;;;;41.45;19.85;;;;;;;;;;6286746;22;20007;-94
2023/11/30 14:22:28;;;;;;;45.22;21.92;;;;;;;;;;6200309;23;20016;-93
2023/11/30 14:24:58;;;;;;;47.45;22.67;;;;;;;;;;6194723;23;20016;-96
2023/11/30 14:27:27;;;;;;;52.58;25.45;;;;;;;;;;6187496;23;20372;-95
2023/11/30 14:30:24;;;;;;;54.40;25.85;;;;;;;;;;6192061;23;20100;-95
2023/11/30 14:35:40;;;;;;;51.88;24.02;;;;;;;;;;6315689;22;20022;-96
2023/11/30 14:38:06;;;;;;;55.88;25.10;;;;;;;;;;6283143;22;20086;-94
2023/11/30 14:40:35;;;;;;;46.55;24.10;;;;;;;;;;6289444;22;20014;-93
2023/11/30 14:43:08;;;;;;;47.38;23.77;;;;;;;;;;6287839;22;20007;-96
2023/11/30 14:45:34;;;;;;;43.90;22.52;;;;;;;;;;6288486;22;20007;-95
2023/11/30 14:48:28;;;;;;;;;;;;;;;;;;;;;
2023/11/30 14:51:34;;;;;;;43.33;21.98;;;;;;;;;;6191285;23;20039;-96
2023/11/30 14:54:25;;;;;;;49.38;23.00;;;;;;;;;;6177227;22;20012;-96
2023/11/30 15:20:42;;;;;;;36.25;18.02;;;;;;;;;;6293442;22;20039;-94
2023/11/30 15:23:12;;;;;;;37.03;18.08;;;;;;;;;;6281408;22;20004;-95
2023/11/30 15:25:41;;;;;;;37.60;18.77;;;;;;;;;;6279581;22;20421;-96
2023/11/30 15:28:10;;;;;;;38.22;19.23;;;;;;;;;;6251877;22;20082;-94
2023/11/30 15:30:45;;;;;;;34.55;18.10;;;;;;;;;;6271844;22;20015;-93
2023/11/30 15:33:13;;;;;;;39.80;19.40;;;;;;;;;;6263876;22;20103;-96
2023/11/30 15:35:48;;;;;;;37.40;18.83;;;;;;;;;;6254859;22;20311;-94
2023/11/30 15:38:30;;;;;;;37.75;20.15;;;;;;;;;;6255480;22;20027;-93
2023/11/30 15:41:05;;;;;;;40.40;19.17;;;;;;;;;;6252763;22;20011;-96
2023/11/30 15:43:35;;;;;;;34.85;18.73;;;;;;;;;;6279743;22;20007;-96
2023/11/30 15:46:32;;;;;;;39.60;19.83;;;;;;;;;;6280152;22;20039;-96
2023/11/30 15:52:30;;;;;;;34.78;16.45;;;;;;;;;;6287111;22;20013;-96
2023/11/30 16:01:10;;;;;;;36.65;18.88;;;;;;;;;;6290315;22;20077;-95
2023/11/30 16:20:24;;;;;;;36.30;18.97;;;;;;;;;;6220955;23;20464;-94
2023/11/30 16:22:56;;;;;;;31.33;17.42;;;;;;;;;;6200560;23;20004;-95
2023/11/30 16:35:24;;;;;;;28.20;15.52;;;;;;;;;;6175198;23;20055;-95
2023/11/30 16:44:24;;;;;;;35.60;16.77;;;;;;;;;;6279839;22;20053;-94
2023/11/30 16:50:14;;;;;;;28.25;15.90;;;;;;;;;;6156614;23;20016;-93
2023/11/30 17:05:18;;;;;;;28.80;15.60;;;;;;;;;;6018809;23;20055;-96
2023/11/30 17:08:15;;;;;;;26.95;15.52;;;;;;;;;;6046607;23;20032;-94
2023/11/30 17:13:35;;;;;;;27.65;16.02;;;;;;;;;;6015591;23;20026;-95
2023/11/30 17:16:01;;;;;;;32.47;17.20;;;;;;;;;;6089114;23;20094;-94
2023/11/30 17:21:36;;;;;;;31.40;17.00;;;;;;;;;;6076030;23;20336;-96
2023/11/30 17:24:11;;;;;;;32.65;17.35;;;;;;;;;;6141997;23;20557;-93
2023/11/30 17:26:39;;;;;;;31.67;17.00;;;;;;;;;;6171141;22;20102;-96
2023/11/30 17:29:48;;;;;;;29.67;15.93;;;;;;;;;;6319057;22;20013;-96
2023/11/30 17:31:55;;;;;;;28.58;14.85;;;;;;;;;;6324606;22;20006;-93
2023/11/30 17:40:19;;;;;;;28.27;15.57;;;;;;;;;;6334184;22;20026;-95
2023/11/30 17:42:46;;;;;;;25.55;15.63;;;;;;;;;;6313900;22;20325;-94
2023/11/30 17:45:21;;;;;;;27.75;15.50;;;;;;;;;;6313038;22;20374;-94
2023/11/30 17:47:50;;;;;;;25.67;15.43;;;;;;;;;;6314269;22;20340;-96
2023/11/30 17:58:28;;;;;;;25.20;14.93;;;;;;;;;;6263479;22;20034;-95
2023/11/30 18:01:03;;;;;;;26.63;15.20;;;;;;;;;;6265678;22;20000;-94
2023/11/30 18:09:17;;;;;;;25.55;13.90;;;;;;;;;;6282529;22;20015;-95
2023/11/30 18:11:43;;;;;;;22.80;13.00;;;;;;;;;;6252900;22;20485;-94
2023/11/30 18:17:19;;;;;;;27.08;14.77;;;;;;;;;;6284040;22;20023;-94
2023/11/30 18:19:48;;;;;;;29.95;15.90;;;;;;;;;;6267045;22;20008;-93
2023/11/30 18:22:37;;;;;;;30.85;16.15;;;;;;;;;;6260558;22;20018;-92
2023/11/30 18:31:02;;;;;;;23.55;12.98;;;;;;;;;;6279364;22;20053;-93
2023/11/30 18:33:28;;;;;;;24.50;13.63;;;;;;;;;;6251378;22;20306;-96
2023/11/30 18:38:36;;;;;;;23.98;13.32;;;;;;;;;;6351239;22;20007;-95
2023/11/30 18:41:45;;;;;;;23.02;13.45;;;;;;;;;;6327229;22;20314;-94
2023/11/30 18:46:54;;;;;;;25.75;15.13;;;;;;;;;;6316814;22;20017;-95
2023/11/30 18:55:56;;;;;;;34.10;16.65;;;;;;;;;;6202426;22;20031;-92
2023/11/30 19:01:35;;;;;;;29.73;17.05;;;;;;;;;;6349402;22;20017;-93
2023/11/30 19:17:47;;;;;;;27.85;16.00;;;;;;;;;;6292450;22;20040;-94
2023/11/30 19:25:54;;;;;;;33.90;16.70;;;;;;;;;;6303554;22;20033;-96
2023/11/30 19:28:47;;;;;;;36.63;18.95;;;;;;;;;;6276819;22;20003;-94
2023/11/30 19:31:42;;;;;;;28.55;15.98;;;;;;;;;;6252790;22;20008;-93
2023/11/30 19:34:45;;;;;;;35.28;18.65;;;;;;;;;;6131943;23;20111;-94
2023/11/30 19:40:19;;;;;;;29.50;16.92;;;;;;;;;;6163062;23;20085;-96
2023/11/30 19:45:22;;;;;;;33.50;18.60;;;;;;;;;;6339607;22;20146;-95
2023/11/30 19:47:54;;;;;;;30.80;16.17;;;;;;;;;;6323792;22;20002;-95
2023/11/30 19:50:37;;;;;;;36.42;18.20;;;;;;;;;;6323365;22;20451;-95
2023/11/30 19:53:09;;;;;;;37.53;19.20;;;;;;;;;;6316809;22;20010;-95
2023/11/30 19:55:36;;;;;;;50.60;23.05;;;;;;;;;;6324666;22;20029;-94
2023/11/30 19:58:20;;;;;;;48.25;23.10;;;;;;;;;;6332754;22;20045;-95
2023/11/30 20:01:09;;;;;;;42.83;19.90;;;;;;;;;;6320665;22;20051;-94
2023/11/30 20:03:35;;;;;;;50.28;22.70;;;;;;;;;;6315790;22;20068;-95
2023/11/30 20:06:09;;;;;;;45.28;23.70;;;;;;;;;;6318951;22;20003;-95
2023/11/30 20:08:42;;;;;;;57.20;25.85;;;;;;;;;;6315712;22;20056;-94
2023/11/30 20:17:01;;;;;;;53.53;25.77;;;;;;;;;;6320194;22;20033;-94
2023/11/30 20:19:30;;;;;;;64.55;26.88;;;;;;;;;;6250348;22;20020;-95
2023/11/30 20:22:05;;;;;;;47.63;23.67;;;;;;;;;;6280251;22;19999;-95